KALM

Alamogordo-White Sands Regional Airport

Alamogordo, New Mexico, USA
METAR KALM 192155Z AUTO 20014G18KT 10SM SCT075 SCT090 33/12 A2985 RMK AO2 LTG DSNT N AND NW
Observed Flight Rules
Sep-19 @ 21:55 UTC (3 hours ago) Visual Flight Rules
Wind Visibility Clouds
200° at 14 knots
 Gusting to 18 knots
10 miles
  • Scattered at 7,500' AGL
  • Scattered at 9,000' AGL
Temperatures Readings
Current 33°C / 91°F
Dewpoint 12°C / 54°F
Humidity 28%
Altimeter 29.85" Hg
Pressure 1011 hPa
Elevation 1279
METAR KALM 192155Z AUTO 20014G18KT 10SM SCT075 SCT090 33/12 A2985 RMK AO2 LTG DSNT N AND NW
Observed Flight Rules
Sep-19 @ 21:55 UTC
(3 hours ago)
VFR
Wind Visibility
200° at 14 knots
 Gusting to 18 knots
10 miles
Clouds
  • Scattered at 7,500' AGL
  • Scattered at 9,000' AGL
Temperature Dewpoint
33°C / 91°F 12°C / 54°F
Humidity Altimeter Pressure
28% 29.85" Hg 1011 hPa